sensor_id;sensor_type;location;lat;lon;timestamp;P1;durP1;ratioP1;P2;durP2;ratioP2
31848;SDS011;18414;59.352;18.152;2022-09-09T00:06:48;0.60;;;0.60;;
31848;SDS011;18414;59.352;18.152;2022-09-09T00:09:19;0.90;;;0.60;;
31848;SDS011;18414;59.352;18.152;2022-09-09T00:11:54;0.77;;;0.70;;
31848;SDS011;18414;59.352;18.152;2022-09-09T00:14:32;1.00;;;1.00;;
31848;SDS011;18414;59.352;18.152;2022-09-09T00:17:00;1.10;;;0.80;;
31848;SDS011;18414;59.352;18.152;2022-09-09T00:19:29;0.60;;;0.60;;
31848;SDS011;18414;59.352;18.152;2022-09-09T00:24:41;0.50;;;0.50;;
31848;SDS011;18414;59.352;18.152;2022-09-09T00:27:30;1.53;;;0.53;;
31848;SDS011;18414;59.352;18.152;2022-09-09T00:30:22;0.70;;;0.63;;
31848;SDS011;18414;59.352;18.152;2022-09-09T00:32:49;0.70;;;0.70;;
31848;SDS011;18414;59.352;18.152;2022-09-09T00:35:23;2.70;;;0.70;;
31848;SDS011;18414;59.352;18.152;2022-09-09T00:37:52;1.80;;;0.60;;
31848;SDS011;18414;59.352;18.152;2022-09-09T00:40:41;2.03;;;0.60;;
31848;SDS011;18414;59.352;18.152;2022-09-09T00:48:40;0.60;;;0.60;;
31848;SDS011;18414;59.352;18.152;2022-09-09T00:56:44;4.53;;;2.23;;
31848;SDS011;18414;59.352;18.152;2022-09-09T01:01:47;1.80;;;0.70;;
31848;SDS011;18414;59.352;18.152;2022-09-09T01:04:16;0.70;;;0.60;;
31848;SDS011;18414;59.352;18.152;2022-09-09T01:06:45;0.60;;;0.53;;
31848;SDS011;18414;59.352;18.152;2022-09-09T01:09:37;1.23;;;0.70;;
31848;SDS011;18414;59.352;18.152;2022-09-09T01:17:18;0.80;;;0.63;;
31848;SDS011;18414;59.352;18.152;2022-09-09T01:27:48;0.50;;;0.50;;
31848;SDS011;18414;59.352;18.152;2022-09-09T01:30:15;1.17;;;0.73;;
31848;SDS011;18414;59.352;18.152;2022-09-09T01:32:46;1.40;;;0.70;;
31848;SDS011;18414;59.352;18.152;2022-09-09T01:38:16;0.60;;;0.60;;
31848;SDS011;18414;59.352;18.152;2022-09-09T01:40:42;0.60;;;0.60;;
31848;SDS011;18414;59.352;18.152;2022-09-09T01:43:07;1.37;;;0.70;;
31848;SDS011;18414;59.352;18.152;2022-09-09T01:45:33;0.97;;;0.77;;
31848;SDS011;18414;59.352;18.152;2022-09-09T01:47:59;0.60;;;0.60;;
31848;SDS011;18414;59.352;18.152;2022-09-09T01:50:24;1.50;;;0.80;;
31848;SDS011;18414;59.352;18.152;2022-09-09T01:52:52;0.70;;;0.70;;
31848;SDS011;18414;59.352;18.152;2022-09-09T01:55:21;2.93;;;0.80;;
31848;SDS011;18414;59.352;18.152;2022-09-09T02:04:01;1.17;;;0.50;;
31848;SDS011;18414;59.352;18.152;2022-09-09T02:08:55;1.77;;;0.70;;
31848;SDS011;18414;59.352;18.152;2022-09-09T02:11:23;0.80;;;0.70;;
31848;SDS011;18414;59.352;18.152;2022-09-09T02:13:51;5.00;;;1.03;;
31848;SDS011;18414;59.352;18.152;2022-09-09T02:16:21;1.90;;;0.80;;
31848;SDS011;18414;59.352;18.152;2022-09-09T02:19:03;0.80;;;0.63;;
31848;SDS011;18414;59.352;18.152;2022-09-09T02:21:33;0.70;;;0.70;;
31848;SDS011;18414;59.352;18.152;2022-09-09T02:24:02;1.23;;;0.80;;
31848;SDS011;18414;59.352;18.152;2022-09-09T02:26:30;0.70;;;0.70;;
31848;SDS011;18414;59.352;18.152;2022-09-09T02:28:57;1.00;;;0.80;;
31848;SDS011;18414;59.352;18.152;2022-09-09T02:31:24;1.50;;;0.77;;
31848;SDS011;18414;59.352;18.152;2022-09-09T02:33:52;0.63;;;0.63;;
31848;SDS011;18414;59.352;18.152;2022-09-09T02:36:20;0.90;;;0.73;;
31848;SDS011;18414;59.352;18.152;2022-09-09T02:38:47;0.87;;;0.80;;
31848;SDS011;18414;59.352;18.152;2022-09-09T02:41:22;1.43;;;0.80;;
31848;SDS011;18414;59.352;18.152;2022-09-09T02:43:51;1.00;;;0.70;;
31848;SDS011;18414;59.352;18.152;2022-09-09T02:46:36;1.07;;;0.70;;
31848;SDS011;18414;59.352;18.152;2022-09-09T02:49:09;0.73;;;0.70;;
31848;SDS011;18414;59.352;18.152;2022-09-09T02:54:27;1.20;;;0.70;;
31848;SDS011;18414;59.352;18.152;2022-09-09T02:56:55;0.70;;;0.70;;
31848;SDS011;18414;59.352;18.152;2022-09-09T02:59:27;2.13;;;0.80;;
31848;SDS011;18414;59.352;18.152;2022-09-09T03:01:52;1.13;;;0.70;;
31848;SDS011;18414;59.352;18.152;2022-09-09T03:04:18;1.23;;;0.87;;
31848;SDS011;18414;59.352;18.152;2022-09-09T03:06:43;2.10;;;1.00;;
31848;SDS011;18414;59.352;18.152;2022-09-09T03:09:09;0.87;;;0.80;;
31848;SDS011;18414;59.352;18.152;2022-09-09T03:11:35;1.35;;;0.90;;
31848;SDS011;18414;59.352;18.152;2022-09-09T03:14:01;1.37;;;1.00;;
31848;SDS011;18414;59.352;18.152;2022-09-09T03:16:27;2.63;;;0.90;;
31848;SDS011;18414;59.352;18.152;2022-09-09T03:18:53;2.45;;;0.80;;
31848;SDS011;18414;59.352;18.152;2022-09-09T03:21:18;2.35;;;1.05;;
31848;SDS011;18414;59.352;18.152;2022-09-09T03:23:43;1.90;;;0.80;;
31848;SDS011;18414;59.352;18.152;2022-09-09T03:26:09;2.17;;;0.90;;
31848;SDS011;18414;59.352;18.152;2022-09-09T03:28:35;3.43;;;1.00;;
31848;SDS011;18414;59.352;18.152;2022-09-09T03:31:01;0.90;;;0.90;;
31848;SDS011;18414;59.352;18.152;2022-09-09T03:33:27;1.10;;;0.90;;
31848;SDS011;18414;59.352;18.152;2022-09-09T03:35:52;2.73;;;1.00;;
31848;SDS011;18414;59.352;18.152;2022-09-09T03:38:19;0.93;;;0.77;;
31848;SDS011;18414;59.352;18.152;2022-09-09T03:40:53;2.10;;;0.80;;
31848;SDS011;18414;59.352;18.152;2022-09-09T03:43:21;4.13;;;1.00;;
31848;SDS011;18414;59.352;18.152;2022-09-09T03:45:46;1.50;;;0.90;;
31848;SDS011;18414;59.352;18.152;2022-09-09T03:48:12;1.53;;;0.90;;
31848;SDS011;18414;59.352;18.152;2022-09-09T03:50:38;1.53;;;1.17;;
31848;SDS011;18414;59.352;18.152;2022-09-09T03:53:04;2.53;;;1.20;;
31848;SDS011;18414;59.352;18.152;2022-09-09T03:55:31;1.77;;;0.90;;
31848;SDS011;18414;59.352;18.152;2022-09-09T03:57:57;1.37;;;0.97;;
31848;SDS011;18414;59.352;18.152;2022-09-09T04:00:22;1.50;;;0.90;;
31848;SDS011;18414;59.352;18.152;2022-09-09T04:02:48;3.33;;;1.00;;
31848;SDS011;18414;59.352;18.152;2022-09-09T04:05:14;3.17;;;1.02;;
31848;SDS011;18414;59.352;18.152;2022-09-09T04:07:40;4.13;;;1.07;;
31848;SDS011;18414;59.352;18.152;2022-09-09T04:10:06;2.17;;;0.90;;
31848;SDS011;18414;59.352;18.152;2022-09-09T04:12:33;1.15;;;0.90;;
31848;SDS011;18414;59.352;18.152;2022-09-09T04:14:59;1.70;;;1.03;;
31848;SDS011;18414;59.352;18.152;2022-09-09T04:17:27;2.93;;;1.00;;
31848;SDS011;18414;59.352;18.152;2022-09-09T04:19:52;1.05;;;0.93;;
31848;SDS011;18414;59.352;18.152;2022-09-09T04:22:18;6.18;;;1.00;;
31848;SDS011;18414;59.352;18.152;2022-09-09T04:24:43;1.33;;;0.80;;
31848;SDS011;18414;59.352;18.152;2022-09-09T04:27:08;1.95;;;0.85;;
31848;SDS011;18414;59.352;18.152;2022-09-09T04:29:34;1.65;;;0.82;;
31848;SDS011;18414;59.352;18.152;2022-09-09T04:31:59;1.77;;;0.90;;
31848;SDS011;18414;59.352;18.152;2022-09-09T04:34:24;1.17;;;0.97;;
31848;SDS011;18414;59.352;18.152;2022-09-09T04:36:50;1.20;;;0.80;;
31848;SDS011;18414;59.352;18.152;2022-09-09T04:39:16;0.60;;;0.60;;
31848;SDS011;18414;59.352;18.152;2022-09-09T04:41:42;2.57;;;0.97;;
31848;SDS011;18414;59.352;18.152;2022-09-09T04:44:07;1.57;;;0.90;;
31848;SDS011;18414;59.352;18.152;2022-09-09T04:46:33;1.63;;;0.90;;
31848;SDS011;18414;59.352;18.152;2022-09-09T04:48:59;1.10;;;0.80;;
31848;SDS011;18414;59.352;18.152;2022-09-09T04:51:24;1.17;;;0.77;;
31848;SDS011;18414;59.352;18.152;2022-09-09T04:53:50;0.80;;;0.70;;
31848;SDS011;18414;59.352;18.152;2022-09-09T04:56:17;1.50;;;0.90;;
31848;SDS011;18414;59.352;18.152;2022-09-09T04:58:43;2.25;;;0.90;;
31848;SDS011;18414;59.352;18.152;2022-09-09T05:01:19;2.60;;;0.73;;
31848;SDS011;18414;59.352;18.152;2022-09-09T05:03:46;1.33;;;0.57;;
31848;SDS011;18414;59.352;18.152;2022-09-09T05:06:16;1.27;;;1.15;;
31848;SDS011;18414;59.352;18.152;2022-09-09T05:08:43;1.85;;;1.08;;
31848;SDS011;18414;59.352;18.152;2022-09-09T05:11:16;3.15;;;0.68;;
31848;SDS011;18414;59.352;18.152;2022-09-09T05:13:49;0.98;;;0.50;;
31848;SDS011;18414;59.352;18.152;2022-09-09T05:16:15;2.60;;;0.70;;
31848;SDS011;18414;59.352;18.152;2022-09-09T05:18:41;5.85;;;1.02;;
31848;SDS011;18414;59.352;18.152;2022-09-09T05:21:11;1.67;;;0.60;;
31848;SDS011;18414;59.352;18.152;2022-09-09T05:23:37;3.78;;;0.68;;
31848;SDS011;18414;59.352;18.152;2022-09-09T05:26:03;1.63;;;0.50;;
31848;SDS011;18414;59.352;18.152;2022-09-09T05:28:29;2.25;;;0.50;;
31848;SDS011;18414;59.352;18.152;2022-09-09T05:30:58;1.17;;;0.68;;
31848;SDS011;18414;59.352;18.152;2022-09-09T05:33:25;0.85;;;0.73;;
31848;SDS011;18414;59.352;18.152;2022-09-09T05:35:55;2.03;;;0.80;;
31848;SDS011;18414;59.352;18.152;2022-09-09T05:38:22;1.30;;;0.85;;
31848;SDS011;18414;59.352;18.152;2022-09-09T05:40:50;1.00;;;0.70;;
31848;SDS011;18414;59.352;18.152;2022-09-09T05:43:17;3.58;;;0.80;;
31848;SDS011;18414;59.352;18.152;2022-09-09T05:45:43;1.70;;;0.80;;
31848;SDS011;18414;59.352;18.152;2022-09-09T05:48:08;1.92;;;0.70;;
31848;SDS011;18414;59.352;18.152;2022-09-09T05:50:35;1.02;;;0.70;;
31848;SDS011;18414;59.352;18.152;2022-09-09T05:53:01;3.75;;;0.70;;
31848;SDS011;18414;59.352;18.152;2022-09-09T05:55:28;0.85;;;0.73;;
31848;SDS011;18414;59.352;18.152;2022-09-09T05:57:53;2.17;;;0.82;;
31848;SDS011;18414;59.352;18.152;2022-09-09T06:00:21;1.77;;;0.70;;
31848;SDS011;18414;59.352;18.152;2022-09-09T06:02:50;0.70;;;0.70;;
31848;SDS011;18414;59.352;18.152;2022-09-09T06:05:21;1.67;;;0.77;;
31848;SDS011;18414;59.352;18.152;2022-09-09T06:07:52;2.05;;;0.90;;
31848;SDS011;18414;59.352;18.152;2022-09-09T06:10:18;2.65;;;0.70;;
31848;SDS011;18414;59.352;18.152;2022-09-09T06:12:44;1.10;;;0.80;;
31848;SDS011;18414;59.352;18.152;2022-09-09T06:15:12;3.40;;;0.70;;
31848;SDS011;18414;59.352;18.152;2022-09-09T06:17:37;1.33;;;0.60;;
31848;SDS011;18414;59.352;18.152;2022-09-09T06:20:04;4.60;;;0.60;;
31848;SDS011;18414;59.352;18.152;2022-09-09T06:22:29;1.35;;;0.50;;
31848;SDS011;18414;59.352;18.152;2022-09-09T06:24:55;1.00;;;0.63;;
31848;SDS011;18414;59.352;18.152;2022-09-09T06:27:21;2.47;;;0.60;;
31848;SDS011;18414;59.352;18.152;2022-09-09T06:29:46;1.25;;;0.70;;
31848;SDS011;18414;59.352;18.152;2022-09-09T06:32:13;1.33;;;0.60;;
31848;SDS011;18414;59.352;18.152;2022-09-09T06:34:38;3.55;;;0.70;;
31848;SDS011;18414;59.352;18.152;2022-09-09T06:37:05;4.35;;;0.70;;
31848;SDS011;18414;59.352;18.152;2022-09-09T06:39:31;1.05;;;0.77;;
31848;SDS011;18414;59.352;18.152;2022-09-09T06:41:57;1.45;;;0.70;;
31848;SDS011;18414;59.352;18.152;2022-09-09T06:44:23;3.72;;;0.70;;
31848;SDS011;18414;59.352;18.152;2022-09-09T06:46:51;2.03;;;0.80;;
31848;SDS011;18414;59.352;18.152;2022-09-09T06:49:18;1.00;;;0.40;;
31848;SDS011;18414;59.352;18.152;2022-09-09T06:51:44;1.35;;;0.65;;
31848;SDS011;18414;59.352;18.152;2022-09-09T06:54:10;1.13;;;0.57;;
31848;SDS011;18414;59.352;18.152;2022-09-09T06:56:40;4.32;;;0.80;;
31848;SDS011;18414;59.352;18.152;2022-09-09T06:59:07;4.53;;;0.75;;
31848;SDS011;18414;59.352;18.152;2022-09-09T07:01:34;2.45;;;0.80;;
31848;SDS011;18414;59.352;18.152;2022-09-09T07:04:05;2.75;;;0.70;;
31848;SDS011;18414;59.352;18.152;2022-09-09T07:06:34;0.80;;;0.52;;
31848;SDS011;18414;59.352;18.152;2022-09-09T07:09:01;1.77;;;0.50;;
31848;SDS011;18414;59.352;18.152;2022-09-09T07:11:34;2.35;;;0.60;;
31848;SDS011;18414;59.352;18.152;2022-09-09T07:14:06;2.15;;;0.80;;
31848;SDS011;18414;59.352;18.152;2022-09-09T07:16:32;3.83;;;0.60;;
31848;SDS011;18414;59.352;18.152;2022-09-09T07:19:03;2.95;;;0.85;;
31848;SDS011;18414;59.352;18.152;2022-09-09T07:21:29;3.17;;;0.63;;
31848;SDS011;18414;59.352;18.152;2022-09-09T07:23:55;1.92;;;0.70;;
31848;SDS011;18414;59.352;18.152;2022-09-09T07:26:22;1.02;;;0.60;;
31848;SDS011;18414;59.352;18.152;2022-09-09T07:28:49;4.20;;;0.60;;
31848;SDS011;18414;59.352;18.152;2022-09-09T07:31:18;1.20;;;0.60;;
31848;SDS011;18414;59.352;18.152;2022-09-09T07:33:55;1.40;;;0.60;;
31848;SDS011;18414;59.352;18.152;2022-09-09T07:36:40;0.63;;;0.60;;
31848;SDS011;18414;59.352;18.152;2022-09-09T07:39:08;0.88;;;0.50;;
31848;SDS011;18414;59.352;18.152;2022-09-09T07:41:39;1.85;;;0.80;;
31848;SDS011;18414;59.352;18.152;2022-09-09T07:44:13;1.77;;;0.60;;
31848;SDS011;18414;59.352;18.152;2022-09-09T07:46:39;4.25;;;0.90;;
31848;SDS011;18414;59.352;18.152;2022-09-09T07:49:06;1.17;;;0.73;;
31848;SDS011;18414;59.352;18.152;2022-09-09T07:51:33;1.13;;;0.60;;
31848;SDS011;18414;59.352;18.152;2022-09-09T07:54:01;3.78;;;0.70;;
31848;SDS011;18414;59.352;18.152;2022-09-09T07:56:29;1.15;;;0.60;;
31848;SDS011;18414;59.352;18.152;2022-09-09T07:58:55;0.65;;;0.50;;
31848;SDS011;18414;59.352;18.152;2022-09-09T08:03:55;1.13;;;0.60;;
31848;SDS011;18414;59.352;18.152;2022-09-09T08:06:24;3.83;;;0.70;;
31848;SDS011;18414;59.352;18.152;2022-09-09T08:08:52;1.80;;;0.60;;
31848;SDS011;18414;59.352;18.152;2022-09-09T08:11:18;1.70;;;0.65;;
31848;SDS011;18414;59.352;18.152;2022-09-09T08:13:44;2.03;;;0.65;;
31848;SDS011;18414;59.352;18.152;2022-09-09T08:18:36;3.35;;;0.80;;
31848;SDS011;18414;59.352;18.152;2022-09-09T08:21:06;2.35;;;0.65;;
31848;SDS011;18414;59.352;18.152;2022-09-09T08:23:42;1.80;;;0.95;;
31848;SDS011;18414;59.352;18.152;2022-09-09T08:26:13;3.10;;;0.70;;
31848;SDS011;18414;59.352;18.152;2022-09-09T08:28:42;1.45;;;0.60;;
31848;SDS011;18414;59.352;18.152;2022-09-09T08:31:15;2.30;;;0.65;;
31848;SDS011;18414;59.352;18.152;2022-09-09T08:33:42;4.00;;;0.70;;
31848;SDS011;18414;59.352;18.152;2022-09-09T08:36:10;0.88;;;0.57;;
31848;SDS011;18414;59.352;18.152;2022-09-09T08:38:38;1.35;;;0.65;;
31848;SDS011;18414;59.352;18.152;2022-09-09T08:41:23;0.90;;;0.47;;
31848;SDS011;18414;59.352;18.152;2022-09-09T08:52:31;2.53;;;0.93;;
31848;SDS011;18414;59.352;18.152;2022-09-09T08:57:42;1.38;;;0.60;;
31848;SDS011;18414;59.352;18.152;2022-09-09T09:00:11;1.00;;;0.50;;
31848;SDS011;18414;59.352;18.152;2022-09-09T09:03:38;2.30;;;0.77;;
31848;SDS011;18414;59.352;18.152;2022-09-09T09:05:44;1.80;;;0.70;;
31848;SDS011;18414;59.352;18.152;2022-09-09T09:11:27;2.25;;;0.70;;
31848;SDS011;18414;59.352;18.152;2022-09-09T09:16:49;0.82;;;0.68;;
31848;SDS011;18414;59.352;18.152;2022-09-09T09:19:19;1.95;;;0.70;;
31848;SDS011;18414;59.352;18.152;2022-09-09T09:21:55;2.35;;;0.70;;
31848;SDS011;18414;59.352;18.152;2022-09-09T09:27:07;1.73;;;0.80;;
31848;SDS011;18414;59.352;18.152;2022-09-09T09:29:38;0.98;;;0.75;;
31848;SDS011;18414;59.352;18.152;2022-09-09T09:32:04;1.88;;;0.70;;
31848;SDS011;18414;59.352;18.152;2022-09-09T09:34:30;1.70;;;0.57;;
31848;SDS011;18414;59.352;18.152;2022-09-09T09:36:56;2.13;;;0.80;;
31848;SDS011;18414;59.352;18.152;2022-09-09T09:39:26;1.10;;;0.57;;
31848;SDS011;18414;59.352;18.152;2022-09-09T09:41:55;1.80;;;0.80;;
31848;SDS011;18414;59.352;18.152;2022-09-09T09:44:24;2.15;;;0.60;;
31848;SDS011;18414;59.352;18.152;2022-09-09T09:46:49;1.08;;;0.70;;
31848;SDS011;18414;59.352;18.152;2022-09-09T09:49:15;2.35;;;0.73;;
31848;SDS011;18414;59.352;18.152;2022-09-09T09:51:42;1.17;;;0.70;;
31848;SDS011;18414;59.352;18.152;2022-09-09T09:56:34;1.25;;;0.65;;
31848;SDS011;18414;59.352;18.152;2022-09-09T09:59:00;0.75;;;0.73;;
31848;SDS011;18414;59.352;18.152;2022-09-09T10:01:27;1.80;;;0.65;;
31848;SDS011;18414;59.352;18.152;2022-09-09T10:03:57;2.42;;;0.80;;
31848;SDS011;18414;59.352;18.152;2022-09-09T10:06:30;1.42;;;0.70;;
31848;SDS011;18414;59.352;18.152;2022-09-09T10:08:56;1.13;;;0.68;;
31848;SDS011;18414;59.352;18.152;2022-09-09T10:22:45;3.40;;;0.80;;
31848;SDS011;18414;59.352;18.152;2022-09-09T10:25:29;0.50;;;0.45;;
31848;SDS011;18414;59.352;18.152;2022-09-09T10:33:20;0.93;;;0.60;;
31848;SDS011;18414;59.352;18.152;2022-09-09T10:46:50;1.50;;;0.68;;
31848;SDS011;18414;59.352;18.152;2022-09-09T10:55:41;1.65;;;0.85;;
31848;SDS011;18414;59.352;18.152;2022-09-09T10:58:10;1.20;;;0.70;;
31848;SDS011;18414;59.352;18.152;2022-09-09T11:00:44;1.17;;;0.70;;
31848;SDS011;18414;59.352;18.152;2022-09-09T11:03:15;1.98;;;0.60;;
31848;SDS011;18414;59.352;18.152;2022-09-09T11:05:44;2.97;;;0.80;;
31848;SDS011;18414;59.352;18.152;2022-09-09T11:08:19;2.38;;;0.85;;
31848;SDS011;18414;59.352;18.152;2022-09-09T11:10:53;1.70;;;0.82;;
31848;SDS011;18414;59.352;18.152;2022-09-09T11:13:32;2.22;;;0.80;;
31848;SDS011;18414;59.352;18.152;2022-09-09T11:16:27;1.25;;;0.60;;
31848;SDS011;18414;59.352;18.152;2022-09-09T11:19:00;2.00;;;0.70;;
31848;SDS011;18414;59.352;18.152;2022-09-09T11:21:52;1.55;;;0.80;;
31848;SDS011;18414;59.352;18.152;2022-09-09T11:24:21;0.80;;;0.80;;
31848;SDS011;18414;59.352;18.152;2022-09-09T11:32:27;1.88;;;0.90;;
31848;SDS011;18414;59.352;18.152;2022-09-09T11:40:45;11.57;;;0.80;;
31848;SDS011;18414;59.352;18.152;2022-09-09T11:43:12;2.00;;;0.73;;
31848;SDS011;18414;59.352;18.152;2022-09-09T11:46:00;1.92;;;0.80;;
31848;SDS011;18414;59.352;18.152;2022-09-09T11:51:41;1.48;;;0.80;;
31848;SDS011;18414;59.352;18.152;2022-09-09T11:53:53;0.93;;;0.77;;
31848;SDS011;18414;59.352;18.152;2022-09-09T11:56:24;1.95;;;0.95;;
31848;SDS011;18414;59.352;18.152;2022-09-09T11:59:01;2.22;;;1.00;;
31848;SDS011;18414;59.352;18.152;2022-09-09T12:01:29;2.65;;;0.90;;
31848;SDS011;18414;59.352;18.152;2022-09-09T12:06:41;1.20;;;1.10;;
31848;SDS011;18414;59.352;18.152;2022-09-09T12:15:03;1.98;;;1.02;;
31848;SDS011;18414;59.352;18.152;2022-09-09T12:17:46;6.25;;;1.40;;
31848;SDS011;18414;59.352;18.152;2022-09-09T12:27:58;4.00;;;1.00;;
31848;SDS011;18414;59.352;18.152;2022-09-09T12:30:32;1.50;;;1.00;;
31848;SDS011;18414;59.352;18.152;2022-09-09T12:33:06;1.73;;;0.90;;
31848;SDS011;18414;59.352;18.152;2022-09-09T12:35:35;3.42;;;1.25;;
31848;SDS011;18414;59.352;18.152;2022-09-09T12:38:03;2.70;;;1.10;;
31848;SDS011;18414;59.352;18.152;2022-09-09T12:40:33;4.47;;;1.20;;
31848;SDS011;18414;59.352;18.152;2022-09-09T12:43:00;6.22;;;1.27;;
31848;SDS011;18414;59.352;18.152;2022-09-09T12:45:29;1.15;;;0.90;;
31848;SDS011;18414;59.352;18.152;2022-09-09T12:48:03;1.75;;;1.02;;
31848;SDS011;18414;59.352;18.152;2022-09-09T12:50:35;2.85;;;1.00;;
31848;SDS011;18414;59.352;18.152;2022-09-09T12:53:04;3.00;;;1.20;;
31848;SDS011;18414;59.352;18.152;2022-09-09T12:55:35;1.73;;;1.13;;
31848;SDS011;18414;59.352;18.152;2022-09-09T12:58:01;2.60;;;1.08;;
31848;SDS011;18414;59.352;18.152;2022-09-09T13:00:30;2.28;;;0.90;;
31848;SDS011;18414;59.352;18.152;2022-09-09T13:03:00;2.50;;;1.13;;
31848;SDS011;18414;59.352;18.152;2022-09-09T13:05:27;2.25;;;1.08;;
31848;SDS011;18414;59.352;18.152;2022-09-09T13:08:04;1.20;;;1.10;;
31848;SDS011;18414;59.352;18.152;2022-09-09T13:10:33;1.63;;;1.05;;
31848;SDS011;18414;59.352;18.152;2022-09-09T13:13:03;3.28;;;1.13;;
31848;SDS011;18414;59.352;18.152;2022-09-09T13:15:30;1.77;;;1.33;;
31848;SDS011;18414;59.352;18.152;2022-09-09T13:17:56;1.10;;;1.00;;
31848;SDS011;18414;59.352;18.152;2022-09-09T13:20:25;1.90;;;1.10;;
31848;SDS011;18414;59.352;18.152;2022-09-09T13:22:51;2.13;;;1.00;;
31848;SDS011;18414;59.352;18.152;2022-09-09T13:27:58;1.27;;;1.10;;
31848;SDS011;18414;59.352;18.152;2022-09-09T13:30:31;1.20;;;1.10;;
31848;SDS011;18414;59.352;18.152;2022-09-09T13:35:55;1.88;;;0.98;;
31848;SDS011;18414;59.352;18.152;2022-09-09T13:38:22;2.35;;;1.10;;
31848;SDS011;18414;59.352;18.152;2022-09-09T13:43:30;1.45;;;1.20;;
31848;SDS011;18414;59.352;18.152;2022-09-09T13:46:01;1.65;;;1.23;;
31848;SDS011;18414;59.352;18.152;2022-09-09T13:48:30;2.38;;;1.08;;
31848;SDS011;18414;59.352;18.152;2022-09-09T13:50:58;2.45;;;1.10;;
31848;SDS011;18414;59.352;18.152;2022-09-09T13:53:24;4.07;;;1.00;;
31848;SDS011;18414;59.352;18.152;2022-09-09T13:55:50;1.52;;;1.02;;
31848;SDS011;18414;59.352;18.152;2022-09-09T13:58:16;2.22;;;1.10;;
31848;SDS011;18414;59.352;18.152;2022-09-09T14:00:46;1.38;;;1.00;;
31848;SDS011;18414;59.352;18.152;2022-09-09T14:03:13;2.13;;;1.20;;
31848;SDS011;18414;59.352;18.152;2022-09-09T14:05:39;1.48;;;1.38;;
31848;SDS011;18414;59.352;18.152;2022-09-09T14:08:05;2.70;;;1.20;;
31848;SDS011;18414;59.352;18.152;2022-09-09T14:10:31;2.17;;;1.10;;
31848;SDS011;18414;59.352;18.152;2022-09-09T14:12:57;3.17;;;1.20;;
31848;SDS011;18414;59.352;18.152;2022-09-09T14:15:22;1.33;;;1.08;;
31848;SDS011;18414;59.352;18.152;2022-09-09T14:17:49;1.60;;;1.15;;
31848;SDS011;18414;59.352;18.152;2022-09-09T14:20:17;1.83;;;1.00;;
31848;SDS011;18414;59.352;18.152;2022-09-09T14:22:44;1.48;;;1.00;;
31848;SDS011;18414;59.352;18.152;2022-09-09T14:25:09;2.63;;;0.82;;
31848;SDS011;18414;59.352;18.152;2022-09-09T14:27:36;1.70;;;1.25;;
31848;SDS011;18414;59.352;18.152;2022-09-09T14:30:04;1.73;;;1.10;;
31848;SDS011;18414;59.352;18.152;2022-09-09T14:32:30;2.40;;;1.10;;
31848;SDS011;18414;59.352;18.152;2022-09-09T14:34:56;2.05;;;0.85;;
31848;SDS011;18414;59.352;18.152;2022-09-09T14:37:21;2.25;;;1.08;;
31848;SDS011;18414;59.352;18.152;2022-09-09T14:39:47;1.70;;;1.00;;
31848;SDS011;18414;59.352;18.152;2022-09-09T14:42:14;2.55;;;1.10;;
31848;SDS011;18414;59.352;18.152;2022-09-09T14:44:40;1.48;;;1.05;;
31848;SDS011;18414;59.352;18.152;2022-09-09T14:47:05;2.00;;;1.08;;
31848;SDS011;18414;59.352;18.152;2022-09-09T14:49:33;1.10;;;1.00;;
31848;SDS011;18414;59.352;18.152;2022-09-09T14:51:59;2.58;;;1.00;;
31848;SDS011;18414;59.352;18.152;2022-09-09T14:54:24;2.90;;;1.13;;
31848;SDS011;18414;59.352;18.152;2022-09-09T14:56:49;2.55;;;1.00;;
31848;SDS011;18414;59.352;18.152;2022-09-09T14:59:15;2.63;;;1.00;;
31848;SDS011;18414;59.352;18.152;2022-09-09T15:01:40;1.75;;;1.20;;
31848;SDS011;18414;59.352;18.152;2022-09-09T15:04:06;1.10;;;1.00;;
31848;SDS011;18414;59.352;18.152;2022-09-09T15:06:34;2.67;;;1.00;;
31848;SDS011;18414;59.352;18.152;2022-09-09T15:09:04;1.23;;;1.00;;
31848;SDS011;18414;59.352;18.152;2022-09-09T15:11:30;4.05;;;1.33;;
31848;SDS011;18414;59.352;18.152;2022-09-09T15:13:59;2.85;;;0.95;;
31848;SDS011;18414;59.352;18.152;2022-09-09T15:16:26;1.23;;;1.08;;
31848;SDS011;18414;59.352;18.152;2022-09-09T15:18:53;1.80;;;0.98;;
31848;SDS011;18414;59.352;18.152;2022-09-09T15:21:21;1.27;;;0.95;;
31848;SDS011;18414;59.352;18.152;2022-09-09T15:23:48;2.47;;;1.08;;
31848;SDS011;18414;59.352;18.152;2022-09-09T15:26:14;1.27;;;1.10;;
31848;SDS011;18414;59.352;18.152;2022-09-09T15:28:40;2.05;;;0.93;;
31848;SDS011;18414;59.352;18.152;2022-09-09T15:31:16;1.45;;;0.90;;
31848;SDS011;18414;59.352;18.152;2022-09-09T15:33:54;2.55;;;0.95;;
31848;SDS011;18414;59.352;18.152;2022-09-09T15:36:26;1.25;;;0.80;;
31848;SDS011;18414;59.352;18.152;2022-09-09T15:38:54;4.35;;;1.15;;
31848;SDS011;18414;59.352;18.152;2022-09-09T15:41:20;3.75;;;1.15;;
31848;SDS011;18414;59.352;18.152;2022-09-09T15:43:47;1.88;;;1.00;;
31848;SDS011;18414;59.352;18.152;2022-09-09T15:48:42;1.85;;;1.10;;
31848;SDS011;18414;59.352;18.152;2022-09-09T15:51:07;1.95;;;1.30;;
31848;SDS011;18414;59.352;18.152;2022-09-09T15:53:34;1.83;;;1.08;;
31848;SDS011;18414;59.352;18.152;2022-09-09T15:56:00;2.13;;;1.10;;
31848;SDS011;18414;59.352;18.152;2022-09-09T15:58:25;1.35;;;1.08;;
31848;SDS011;18414;59.352;18.152;2022-09-09T16:01:01;2.03;;;1.23;;
31848;SDS011;18414;59.352;18.152;2022-09-09T16:03:37;3.90;;;1.25;;
31848;SDS011;18414;59.352;18.152;2022-09-09T16:06:06;3.72;;;1.17;;
31848;SDS011;18414;59.352;18.152;2022-09-09T16:08:34;1.70;;;1.30;;
31848;SDS011;18414;59.352;18.152;2022-09-09T16:11:05;3.33;;;1.20;;
31848;SDS011;18414;59.352;18.152;2022-09-09T16:13:41;1.52;;;1.10;;
31848;SDS011;18414;59.352;18.152;2022-09-09T16:16:08;2.22;;;1.20;;
31848;SDS011;18414;59.352;18.152;2022-09-09T16:18:39;2.08;;;1.20;;
31848;SDS011;18414;59.352;18.152;2022-09-09T16:21:08;2.50;;;1.08;;
31848;SDS011;18414;59.352;18.152;2022-09-09T16:23:39;1.85;;;1.15;;
31848;SDS011;18414;59.352;18.152;2022-09-09T16:26:04;1.80;;;1.10;;
31848;SDS011;18414;59.352;18.152;2022-09-09T16:28:30;2.35;;;1.25;;
31848;SDS011;18414;59.352;18.152;2022-09-09T16:30:56;1.13;;;1.02;;
31848;SDS011;18414;59.352;18.152;2022-09-09T16:33:23;2.92;;;1.20;;
31848;SDS011;18414;59.352;18.152;2022-09-09T16:35:48;2.03;;;1.20;;
31848;SDS011;18414;59.352;18.152;2022-09-09T16:38:14;1.17;;;1.00;;
31848;SDS011;18414;59.352;18.152;2022-09-09T16:40:40;2.60;;;1.10;;
31848;SDS011;18414;59.352;18.152;2022-09-09T16:43:06;1.45;;;1.08;;
31848;SDS011;18414;59.352;18.152;2022-09-09T16:45:32;1.52;;;1.05;;
31848;SDS011;18414;59.352;18.152;2022-09-09T16:47:58;2.50;;;1.10;;
31848;SDS011;18414;59.352;18.152;2022-09-09T16:50:28;2.15;;;0.90;;
31848;SDS011;18414;59.352;18.152;2022-09-09T16:52:55;3.20;;;1.30;;
31848;SDS011;18414;59.352;18.152;2022-09-09T16:55:21;2.15;;;1.20;;
31848;SDS011;18414;59.352;18.152;2022-09-09T16:57:46;1.23;;;1.00;;
31848;SDS011;18414;59.352;18.152;2022-09-09T17:00:15;1.52;;;1.15;;
31848;SDS011;18414;59.352;18.152;2022-09-09T17:02:41;2.90;;;1.10;;
31848;SDS011;18414;59.352;18.152;2022-09-09T17:05:08;1.83;;;1.25;;
31848;SDS011;18414;59.352;18.152;2022-09-09T17:07:35;1.83;;;1.10;;
31848;SDS011;18414;59.352;18.152;2022-09-09T17:10:01;2.35;;;0.93;;
31848;SDS011;18414;59.352;18.152;2022-09-09T17:12:27;3.15;;;1.35;;
31848;SDS011;18414;59.352;18.152;2022-09-09T17:14:52;1.50;;;0.98;;